Wildwood, Illinois
Current Conditions -  °F | °C
As of 2:55 AM on Thursday 23 Oct 2014 (Local Time) from KUGN Reporting Station
Clear Clear  
Wind Chill: 30°   Ceiling: Unl
Heat Index: 34°   Visibility: 9mi
Dew Point: 32°   Wind: 5mph
Humidity: 92%   Direction: 210°SSW
Pressure: 30.23"   Gusts: NA
Location:  42.3279°N, 88.0546°W
Report Text: KUGN 230755Z AUTO 21004KT 9SM CLR 01/00 A3023 RMK AO2 SLP244 T00110000
Loading
Personal Weather Stations






























Interactive Weather Map
Tropical Storm Tracking
New forecast layout! Learn more

10-Day Weather Forecast

Advertisements
Track Severe Weather on mobile